sensor_id;sensor_type;location;lat;lon;timestamp;P1;durP1;ratioP1;P2;durP2;ratioP2
37411;SDS011;23278;52.110;6.050;2023-04-26T00:02:12;6.53;;;2.70;;
37411;SDS011;23278;52.110;6.050;2023-04-26T00:04:40;3.70;;;2.33;;
37411;SDS011;23278;52.110;6.050;2023-04-26T00:07:06;4.78;;;2.58;;
37411;SDS011;23278;52.110;6.050;2023-04-26T00:09:32;8.20;;;2.75;;
37411;SDS011;23278;52.110;6.050;2023-04-26T00:11:58;4.18;;;2.28;;
37411;SDS011;23278;52.110;6.050;2023-04-26T00:14:24;4.60;;;1.88;;
37411;SDS011;23278;52.110;6.050;2023-04-26T00:16:50;4.13;;;2.03;;
37411;SDS011;23278;52.110;6.050;2023-04-26T00:19:16;7.15;;;2.45;;
37411;SDS011;23278;52.110;6.050;2023-04-26T00:21:43;5.97;;;2.47;;
37411;SDS011;23278;52.110;6.050;2023-04-26T00:24:08;5.38;;;2.22;;
37411;SDS011;23278;52.110;6.050;2023-04-26T00:26:34;8.73;;;1.80;;
37411;SDS011;23278;52.110;6.050;2023-04-26T00:29:01;6.82;;;2.58;;
37411;SDS011;23278;52.110;6.050;2023-04-26T00:31:29;8.60;;;2.90;;
37411;SDS011;23278;52.110;6.050;2023-04-26T00:33:55;6.40;;;2.53;;
37411;SDS011;23278;52.110;6.050;2023-04-26T00:36:21;5.00;;;2.25;;
37411;SDS011;23278;52.110;6.050;2023-04-26T00:38:47;5.22;;;2.72;;
37411;SDS011;23278;52.110;6.050;2023-04-26T00:41:13;3.00;;;2.10;;
37411;SDS011;23278;52.110;6.050;2023-04-26T00:43:39;4.65;;;1.60;;
37411;SDS011;23278;52.110;6.050;2023-04-26T00:46:06;5.07;;;2.58;;
37411;SDS011;23278;52.110;6.050;2023-04-26T00:48:33;5.57;;;2.40;;
37411;SDS011;23278;52.110;6.050;2023-04-26T00:51:00;8.88;;;2.78;;
37411;SDS011;23278;52.110;6.050;2023-04-26T00:53:27;4.93;;;1.90;;
37411;SDS011;23278;52.110;6.050;2023-04-26T00:55:54;4.07;;;2.60;;
37411;SDS011;23278;52.110;6.050;2023-04-26T00:58:21;6.00;;;2.80;;
37411;SDS011;23278;52.110;6.050;2023-04-26T01:00:47;4.43;;;2.20;;
37411;SDS011;23278;52.110;6.050;2023-04-26T01:03:14;4.90;;;2.30;;
37411;SDS011;23278;52.110;6.050;2023-04-26T01:05:41;4.93;;;2.28;;
37411;SDS011;23278;52.110;6.050;2023-04-26T01:08:09;3.63;;;2.00;;
37411;SDS011;23278;52.110;6.050;2023-04-26T01:10:35;5.38;;;2.35;;
37411;SDS011;23278;52.110;6.050;2023-04-26T01:13:02;4.72;;;2.60;;
37411;SDS011;23278;52.110;6.050;2023-04-26T01:15:28;3.28;;;1.95;;
37411;SDS011;23278;52.110;6.050;2023-04-26T01:17:58;4.95;;;2.47;;
37411;SDS011;23278;52.110;6.050;2023-04-26T01:20:24;4.53;;;1.88;;
37411;SDS011;23278;52.110;6.050;2023-04-26T01:22:51;3.78;;;1.73;;
37411;SDS011;23278;52.110;6.050;2023-04-26T01:25:17;4.93;;;1.75;;
37411;SDS011;23278;52.110;6.050;2023-04-26T01:27:43;4.38;;;2.05;;
37411;SDS011;23278;52.110;6.050;2023-04-26T01:30:10;6.40;;;1.90;;
37411;SDS011;23278;52.110;6.050;2023-04-26T01:32:36;4.22;;;1.58;;
37411;SDS011;23278;52.110;6.050;2023-04-26T01:35:02;7.38;;;1.90;;
37411;SDS011;23278;52.110;6.050;2023-04-26T01:37:29;3.75;;;1.73;;
37411;SDS011;23278;52.110;6.050;2023-04-26T01:39:58;3.40;;;1.88;;
37411;SDS011;23278;52.110;6.050;2023-04-26T01:42:24;3.65;;;2.20;;
37411;SDS011;23278;52.110;6.050;2023-04-26T01:44:50;3.17;;;1.90;;
37411;SDS011;23278;52.110;6.050;2023-04-26T01:47:16;4.60;;;1.85;;
37411;SDS011;23278;52.110;6.050;2023-04-26T01:49:44;2.83;;;1.80;;
37411;SDS011;23278;52.110;6.050;2023-04-26T01:52:09;4.83;;;2.30;;
37411;SDS011;23278;52.110;6.050;2023-04-26T01:54:35;4.03;;;2.05;;
37411;SDS011;23278;52.110;6.050;2023-04-26T01:57:01;4.50;;;2.50;;
37411;SDS011;23278;52.110;6.050;2023-04-26T01:59:27;6.53;;;2.33;;
37411;SDS011;23278;52.110;6.050;2023-04-26T02:01:53;7.45;;;2.15;;
37411;SDS011;23278;52.110;6.050;2023-04-26T02:04:19;5.32;;;2.13;;
37411;SDS011;23278;52.110;6.050;2023-04-26T02:06:45;8.68;;;2.28;;
37411;SDS011;23278;52.110;6.050;2023-04-26T02:09:11;4.95;;;2.50;;
37411;SDS011;23278;52.110;6.050;2023-04-26T02:11:38;3.00;;;1.90;;
37411;SDS011;23278;52.110;6.050;2023-04-26T02:14:04;6.50;;;2.47;;
37411;SDS011;23278;52.110;6.050;2023-04-26T02:16:30;5.87;;;1.70;;
37411;SDS011;23278;52.110;6.050;2023-04-26T02:18:57;3.30;;;1.90;;
37411;SDS011;23278;52.110;6.050;2023-04-26T02:21:27;9.48;;;2.20;;
37411;SDS011;23278;52.110;6.050;2023-04-26T02:23:55;5.23;;;1.60;;
37411;SDS011;23278;52.110;6.050;2023-04-26T02:26:22;6.03;;;3.40;;
37411;SDS011;23278;52.110;6.050;2023-04-26T02:28:48;3.90;;;2.30;;
37411;SDS011;23278;52.110;6.050;2023-04-26T02:31:14;6.43;;;3.20;;
37411;SDS011;23278;52.110;6.050;2023-04-26T02:33:40;6.57;;;3.07;;
37411;SDS011;23278;52.110;6.050;2023-04-26T02:36:07;5.57;;;2.10;;
37411;SDS011;23278;52.110;6.050;2023-04-26T02:38:34;8.40;;;3.00;;
37411;SDS011;23278;52.110;6.050;2023-04-26T02:41:02;7.53;;;2.03;;
37411;SDS011;23278;52.110;6.050;2023-04-26T02:43:29;9.57;;;2.07;;
37411;SDS011;23278;52.110;6.050;2023-04-26T02:45:56;8.10;;;2.70;;
37411;SDS011;23278;52.110;6.050;2023-04-26T02:48:24;4.60;;;2.13;;
37411;SDS011;23278;52.110;6.050;2023-04-26T02:50:50;4.07;;;2.83;;
37411;SDS011;23278;52.110;6.050;2023-04-26T02:53:16;6.67;;;3.27;;
37411;SDS011;23278;52.110;6.050;2023-04-26T02:55:42;4.60;;;2.23;;
37411;SDS011;23278;52.110;6.050;2023-04-26T02:58:08;5.00;;;2.90;;
37411;SDS011;23278;52.110;6.050;2023-04-26T03:00:34;5.77;;;2.97;;
37411;SDS011;23278;52.110;6.050;2023-04-26T03:03:00;6.28;;;2.92;;
37411;SDS011;23278;52.110;6.050;2023-04-26T03:05:27;3.75;;;2.47;;
37411;SDS011;23278;52.110;6.050;2023-04-26T03:07:53;4.75;;;3.65;;
37411;SDS011;23278;52.110;6.050;2023-04-26T03:10:19;6.78;;;3.22;;
37411;SDS011;23278;52.110;6.050;2023-04-26T03:12:44;9.27;;;3.00;;
37411;SDS011;23278;52.110;6.050;2023-04-26T03:15:10;5.13;;;2.30;;
37411;SDS011;23278;52.110;6.050;2023-04-26T03:17:38;4.00;;;2.53;;
37411;SDS011;23278;52.110;6.050;2023-04-26T03:20:04;5.97;;;2.23;;
37411;SDS011;23278;52.110;6.050;2023-04-26T03:22:32;5.50;;;2.47;;
37411;SDS011;23278;52.110;6.050;2023-04-26T03:24:58;6.53;;;2.53;;
37411;SDS011;23278;52.110;6.050;2023-04-26T03:27:26;4.27;;;2.90;;
37411;SDS011;23278;52.110;6.050;2023-04-26T03:29:52;4.60;;;2.83;;
37411;SDS011;23278;52.110;6.050;2023-04-26T03:32:18;3.27;;;2.03;;
37411;SDS011;23278;52.110;6.050;2023-04-26T03:34:44;9.63;;;2.40;;
37411;SDS011;23278;52.110;6.050;2023-04-26T03:37:11;5.63;;;3.60;;
37411;SDS011;23278;52.110;6.050;2023-04-26T03:39:38;3.43;;;2.50;;
37411;SDS011;23278;52.110;6.050;2023-04-26T03:42:04;9.90;;;3.80;;
37411;SDS011;23278;52.110;6.050;2023-04-26T03:44:32;5.50;;;2.20;;
37411;SDS011;23278;52.110;6.050;2023-04-26T03:46:59;3.67;;;1.90;;
37411;SDS011;23278;52.110;6.050;2023-04-26T03:49:25;6.93;;;2.67;;
37411;SDS011;23278;52.110;6.050;2023-04-26T03:51:51;5.00;;;2.13;;
37411;SDS011;23278;52.110;6.050;2023-04-26T03:54:17;6.73;;;3.07;;
37411;SDS011;23278;52.110;6.050;2023-04-26T03:56:43;8.40;;;3.30;;
37411;SDS011;23278;52.110;6.050;2023-04-26T03:59:10;8.47;;;3.23;;
37411;SDS011;23278;52.110;6.050;2023-04-26T04:01:37;5.90;;;2.80;;
37411;SDS011;23278;52.110;6.050;2023-04-26T04:04:03;4.50;;;3.27;;
37411;SDS011;23278;52.110;6.050;2023-04-26T04:06:29;6.70;;;3.47;;
37411;SDS011;23278;52.110;6.050;2023-04-26T04:08:55;5.90;;;2.97;;
37411;SDS011;23278;52.110;6.050;2023-04-26T04:11:22;4.63;;;3.07;;
37411;SDS011;23278;52.110;6.050;2023-04-26T04:13:48;10.40;;;3.87;;
37411;SDS011;23278;52.110;6.050;2023-04-26T04:16:13;9.17;;;3.80;;
37411;SDS011;23278;52.110;6.050;2023-04-26T04:18:39;8.67;;;3.87;;
37411;SDS011;23278;52.110;6.050;2023-04-26T04:21:06;7.33;;;3.07;;
37411;SDS011;23278;52.110;6.050;2023-04-26T04:23:32;6.83;;;4.30;;
37411;SDS011;23278;52.110;6.050;2023-04-26T04:26:00;5.13;;;3.80;;
37411;SDS011;23278;52.110;6.050;2023-04-26T04:28:27;7.77;;;3.60;;
37411;SDS011;23278;52.110;6.050;2023-04-26T04:30:54;7.00;;;3.70;;
37411;SDS011;23278;52.110;6.050;2023-04-26T04:33:21;8.17;;;3.53;;
37411;SDS011;23278;52.110;6.050;2023-04-26T04:35:48;8.37;;;3.53;;
37411;SDS011;23278;52.110;6.050;2023-04-26T04:38:14;4.70;;;3.60;;
37411;SDS011;23278;52.110;6.050;2023-04-26T04:40:40;6.43;;;3.53;;
37411;SDS011;23278;52.110;6.050;2023-04-26T04:43:06;8.70;;;3.60;;
37411;SDS011;23278;52.110;6.050;2023-04-26T04:45:33;6.33;;;3.70;;
37411;SDS011;23278;52.110;6.050;2023-04-26T04:48:00;8.70;;;4.47;;
37411;SDS011;23278;52.110;6.050;2023-04-26T04:50:26;18.90;;;5.13;;
37411;SDS011;23278;52.110;6.050;2023-04-26T04:52:52;7.50;;;4.07;;
37411;SDS011;23278;52.110;6.050;2023-04-26T04:55:18;7.73;;;3.33;;
37411;SDS011;23278;52.110;6.050;2023-04-26T04:57:45;7.63;;;2.87;;
37411;SDS011;23278;52.110;6.050;2023-04-26T05:00:11;8.53;;;3.40;;
37411;SDS011;23278;52.110;6.050;2023-04-26T05:02:57;5.37;;;3.23;;
37411;SDS011;23278;52.110;6.050;2023-04-26T05:05:23;6.27;;;2.60;;
37411;SDS011;23278;52.110;6.050;2023-04-26T05:07:49;6.87;;;2.40;;
37411;SDS011;23278;52.110;6.050;2023-04-26T05:10:15;6.27;;;3.53;;
37411;SDS011;23278;52.110;6.050;2023-04-26T05:12:41;6.77;;;3.13;;
37411;SDS011;23278;52.110;6.050;2023-04-26T05:15:07;5.93;;;3.13;;
37411;SDS011;23278;52.110;6.050;2023-04-26T05:17:33;5.60;;;3.30;;
37411;SDS011;23278;52.110;6.050;2023-04-26T05:20:07;8.47;;;4.00;;
37411;SDS011;23278;52.110;6.050;2023-04-26T05:22:35;7.60;;;4.13;;
37411;SDS011;23278;52.110;6.050;2023-04-26T05:25:02;8.93;;;4.88;;
37411;SDS011;23278;52.110;6.050;2023-04-26T05:27:29;6.50;;;4.03;;
37411;SDS011;23278;52.110;6.050;2023-04-26T05:30:21;6.88;;;3.60;;
37411;SDS011;23278;52.110;6.050;2023-04-26T05:32:58;6.33;;;3.87;;
37411;SDS011;23278;52.110;6.050;2023-04-26T05:35:50;7.40;;;4.18;;
37411;SDS011;23278;52.110;6.050;2023-04-26T05:38:20;14.63;;;5.53;;
37411;SDS011;23278;52.110;6.050;2023-04-26T05:40:48;7.47;;;4.03;;
37411;SDS011;23278;52.110;6.050;2023-04-26T05:43:15;7.47;;;3.60;;
37411;SDS011;23278;52.110;6.050;2023-04-26T05:45:54;5.20;;;3.40;;
37411;SDS011;23278;52.110;6.050;2023-04-26T05:48:21;6.28;;;3.70;;
37411;SDS011;23278;52.110;6.050;2023-04-26T05:50:49;8.02;;;3.45;;
37411;SDS011;23278;52.110;6.050;2023-04-26T05:53:15;8.70;;;3.92;;
37411;SDS011;23278;52.110;6.050;2023-04-26T05:55:42;14.23;;;4.30;;
37411;SDS011;23278;52.110;6.050;2023-04-26T05:58:09;10.93;;;4.35;;
37411;SDS011;23278;52.110;6.050;2023-04-26T06:00:35;12.13;;;4.63;;
37411;SDS011;23278;52.110;6.050;2023-04-26T06:03:03;9.00;;;3.78;;
37411;SDS011;23278;52.110;6.050;2023-04-26T06:05:32;9.15;;;4.47;;
37411;SDS011;23278;52.110;6.050;2023-04-26T06:07:58;7.57;;;3.45;;
37411;SDS011;23278;52.110;6.050;2023-04-26T06:10:25;8.45;;;3.72;;
37411;SDS011;23278;52.110;6.050;2023-04-26T06:12:51;9.82;;;4.18;;
37411;SDS011;23278;52.110;6.050;2023-04-26T06:15:19;10.02;;;4.25;;
37411;SDS011;23278;52.110;6.050;2023-04-26T06:17:45;8.30;;;3.15;;
37411;SDS011;23278;52.110;6.050;2023-04-26T06:20:11;15.50;;;5.97;;
37411;SDS011;23278;52.110;6.050;2023-04-26T06:22:37;5.15;;;3.53;;
37411;SDS011;23278;52.110;6.050;2023-04-26T06:25:03;9.35;;;4.45;;
37411;SDS011;23278;52.110;6.050;2023-04-26T06:27:31;15.15;;;5.65;;
37411;SDS011;23278;52.110;6.050;2023-04-26T06:29:57;7.47;;;4.32;;
37411;SDS011;23278;52.110;6.050;2023-04-26T06:32:25;8.52;;;5.10;;
37411;SDS011;23278;52.110;6.050;2023-04-26T06:34:52;7.45;;;3.58;;
37411;SDS011;23278;52.110;6.050;2023-04-26T06:37:19;10.65;;;5.53;;
37411;SDS011;23278;52.110;6.050;2023-04-26T06:39:46;11.25;;;3.15;;
37411;SDS011;23278;52.110;6.050;2023-04-26T06:42:12;7.35;;;3.47;;
37411;SDS011;23278;52.110;6.050;2023-04-26T06:45:02;7.45;;;3.15;;
37411;SDS011;23278;52.110;6.050;2023-04-26T06:47:32;6.72;;;3.22;;
37411;SDS011;23278;52.110;6.050;2023-04-26T06:49:58;5.97;;;3.70;;
37411;SDS011;23278;52.110;6.050;2023-04-26T06:52:24;4.05;;;2.35;;
37411;SDS011;23278;52.110;6.050;2023-04-26T06:54:50;3.95;;;2.30;;
37411;SDS011;23278;52.110;6.050;2023-04-26T06:57:16;9.43;;;2.58;;
37411;SDS011;23278;52.110;6.050;2023-04-26T06:59:42;5.60;;;2.63;;
37411;SDS011;23278;52.110;6.050;2023-04-26T07:02:08;8.80;;;3.15;;
37411;SDS011;23278;52.110;6.050;2023-04-26T07:04:34;6.20;;;2.67;;
37411;SDS011;23278;52.110;6.050;2023-04-26T07:07:00;12.18;;;5.22;;
37411;SDS011;23278;52.110;6.050;2023-04-26T07:09:27;9.15;;;2.45;;
37411;SDS011;23278;52.110;6.050;2023-04-26T07:11:52;10.23;;;4.00;;
37411;SDS011;23278;52.110;6.050;2023-04-26T07:14:18;8.50;;;3.55;;
37411;SDS011;23278;52.110;6.050;2023-04-26T07:16:44;5.85;;;2.03;;
37411;SDS011;23278;52.110;6.050;2023-04-26T07:19:10;4.97;;;1.90;;
37411;SDS011;23278;52.110;6.050;2023-04-26T07:21:36;5.60;;;2.15;;
37411;SDS011;23278;52.110;6.050;2023-04-26T07:24:02;3.58;;;1.50;;
37411;SDS011;23278;52.110;6.050;2023-04-26T07:26:28;8.52;;;1.58;;
37411;SDS011;23278;52.110;6.050;2023-04-26T07:28:54;5.10;;;1.77;;
37411;SDS011;23278;52.110;6.050;2023-04-26T07:31:20;3.92;;;1.30;;
37411;SDS011;23278;52.110;6.050;2023-04-26T07:33:46;4.82;;;1.40;;
37411;SDS011;23278;52.110;6.050;2023-04-26T07:36:12;5.90;;;1.27;;
37411;SDS011;23278;52.110;6.050;2023-04-26T07:38:38;4.85;;;1.58;;
37411;SDS011;23278;52.110;6.050;2023-04-26T07:41:04;3.67;;;1.08;;
37411;SDS011;23278;52.110;6.050;2023-04-26T07:43:30;8.02;;;1.80;;
37411;SDS011;23278;52.110;6.050;2023-04-26T07:46:00;3.53;;;0.80;;
37411;SDS011;23278;52.110;6.050;2023-04-26T07:48:26;6.75;;;1.30;;
37411;SDS011;23278;52.110;6.050;2023-04-26T07:50:52;4.78;;;0.82;;
37411;SDS011;23278;52.110;6.050;2023-04-26T07:53:19;3.75;;;1.02;;
37411;SDS011;23278;52.110;6.050;2023-04-26T07:55:46;7.00;;;1.13;;
37411;SDS011;23278;52.110;6.050;2023-04-26T07:58:12;5.97;;;0.90;;
37411;SDS011;23278;52.110;6.050;2023-04-26T08:00:41;7.25;;;0.90;;
37411;SDS011;23278;52.110;6.050;2023-04-26T08:03:07;3.38;;;1.00;;
37411;SDS011;23278;52.110;6.050;2023-04-26T08:05:33;2.38;;;1.02;;
37411;SDS011;23278;52.110;6.050;2023-04-26T08:07:59;9.02;;;1.48;;
37411;SDS011;23278;52.110;6.050;2023-04-26T08:10:26;6.18;;;1.48;;
37411;SDS011;23278;52.110;6.050;2023-04-26T08:12:52;5.57;;;1.27;;
37411;SDS011;23278;52.110;6.050;2023-04-26T08:15:18;1.52;;;0.90;;
37411;SDS011;23278;52.110;6.050;2023-04-26T08:17:44;2.65;;;1.20;;
37411;SDS011;23278;52.110;6.050;2023-04-26T08:20:11;2.72;;;0.82;;
37411;SDS011;23278;52.110;6.050;2023-04-26T08:22:37;2.22;;;0.88;;
37411;SDS011;23278;52.110;6.050;2023-04-26T08:25:03;2.55;;;0.93;;
37411;SDS011;23278;52.110;6.050;2023-04-26T08:27:30;6.25;;;0.95;;
37411;SDS011;23278;52.110;6.050;2023-04-26T08:29:58;3.15;;;1.00;;
37411;SDS011;23278;52.110;6.050;2023-04-26T08:32:24;4.35;;;1.25;;
37411;SDS011;23278;52.110;6.050;2023-04-26T08:34:50;4.47;;;1.35;;
37411;SDS011;23278;52.110;6.050;2023-04-26T08:37:16;4.00;;;0.90;;
37411;SDS011;23278;52.110;6.050;2023-04-26T08:39:42;3.17;;;0.98;;
37411;SDS011;23278;52.110;6.050;2023-04-26T08:42:15;2.60;;;0.73;;
37411;SDS011;23278;52.110;6.050;2023-04-26T08:44:42;3.03;;;0.88;;
37411;SDS011;23278;52.110;6.050;2023-04-26T08:47:27;4.78;;;0.98;;
37411;SDS011;23278;52.110;6.050;2023-04-26T08:49:58;2.50;;;0.70;;
37411;SDS011;23278;52.110;6.050;2023-04-26T08:52:29;2.25;;;0.70;;
37411;SDS011;23278;52.110;6.050;2023-04-26T08:54:57;5.90;;;1.33;;
37411;SDS011;23278;52.110;6.050;2023-04-26T08:57:24;4.20;;;1.00;;
37411;SDS011;23278;52.110;6.050;2023-04-26T08:59:50;2.25;;;0.73;;
37411;SDS011;23278;52.110;6.050;2023-04-26T09:02:18;2.53;;;0.70;;
37411;SDS011;23278;52.110;6.050;2023-04-26T09:04:45;2.17;;;0.90;;
37411;SDS011;23278;52.110;6.050;2023-04-26T09:09:54;7.60;;;0.85;;
37411;SDS011;23278;52.110;6.050;2023-04-26T09:12:22;2.78;;;0.93;;
37411;SDS011;23278;52.110;6.050;2023-04-26T09:14:49;3.15;;;0.70;;
37411;SDS011;23278;52.110;6.050;2023-04-26T09:17:24;2.15;;;1.02;;
37411;SDS011;23278;52.110;6.050;2023-04-26T09:19:51;1.98;;;0.57;;
37411;SDS011;23278;52.110;6.050;2023-04-26T09:22:35;4.15;;;1.00;;
37411;SDS011;23278;52.110;6.050;2023-04-26T09:25:03;2.30;;;0.88;;
37411;SDS011;23278;52.110;6.050;2023-04-26T09:27:32;2.90;;;0.77;;
37411;SDS011;23278;52.110;6.050;2023-04-26T09:32:51;4.40;;;0.88;;
37411;SDS011;23278;52.110;6.050;2023-04-26T09:35:27;1.35;;;0.60;;
37411;SDS011;23278;52.110;6.050;2023-04-26T09:37:55;1.90;;;0.70;;
37411;SDS011;23278;52.110;6.050;2023-04-26T09:40:27;3.08;;;0.70;;
37411;SDS011;23278;52.110;6.050;2023-04-26T09:45:30;2.15;;;0.57;;
37411;SDS011;23278;52.110;6.050;2023-04-26T09:48:17;2.10;;;0.70;;
37411;SDS011;23278;52.110;6.050;2023-04-26T09:50:44;2.05;;;0.75;;
37411;SDS011;23278;52.110;6.050;2023-04-26T09:53:11;5.35;;;1.13;;
37411;SDS011;23278;52.110;6.050;2023-04-26T10:01:13;3.38;;;0.90;;
37411;SDS011;23278;52.110;6.050;2023-04-26T10:03:42;2.97;;;1.08;;
37411;SDS011;23278;52.110;6.050;2023-04-26T10:06:08;2.83;;;1.00;;
37411;SDS011;23278;52.110;6.050;2023-04-26T10:08:34;3.58;;;1.00;;
37411;SDS011;23278;52.110;6.050;2023-04-26T10:11:04;4.38;;;0.90;;
37411;SDS011;23278;52.110;6.050;2023-04-26T10:13:35;1.98;;;1.05;;
37411;SDS011;23278;52.110;6.050;2023-04-26T10:16:02;2.70;;;1.08;;
37411;SDS011;23278;52.110;6.050;2023-04-26T10:18:29;2.65;;;0.98;;
37411;SDS011;23278;52.110;6.050;2023-04-26T10:20:59;2.90;;;1.27;;
37411;SDS011;23278;52.110;6.050;2023-04-26T10:23:41;2.38;;;1.50;;
37411;SDS011;23278;52.110;6.050;2023-04-26T10:26:28;3.75;;;0.93;;
37411;SDS011;23278;52.110;6.050;2023-04-26T10:29:17;3.28;;;1.27;;
37411;SDS011;23278;52.110;6.050;2023-04-26T10:34:31;1.38;;;1.00;;
37411;SDS011;23278;52.110;6.050;2023-04-26T10:37:05;3.65;;;0.90;;
37411;SDS011;23278;52.110;6.050;2023-04-26T10:39:31;3.97;;;1.25;;
37411;SDS011;23278;52.110;6.050;2023-04-26T10:44:49;3.25;;;0.98;;
37411;SDS011;23278;52.110;6.050;2023-04-26T10:52:30;3.58;;;0.85;;
37411;SDS011;23278;52.110;6.050;2023-04-26T10:54:56;5.38;;;1.08;;
37411;SDS011;23278;52.110;6.050;2023-04-26T10:57:24;1.67;;;0.80;;
37411;SDS011;23278;52.110;6.050;2023-04-26T11:00:16;3.42;;;1.20;;
37411;SDS011;23278;52.110;6.050;2023-04-26T11:10:50;4.75;;;1.83;;
37411;SDS011;23278;52.110;6.050;2023-04-26T11:13:20;3.72;;;1.00;;
37411;SDS011;23278;52.110;6.050;2023-04-26T11:15:46;6.70;;;1.13;;
37411;SDS011;23278;52.110;6.050;2023-04-26T11:18:18;2.00;;;0.88;;
37411;SDS011;23278;52.110;6.050;2023-04-26T11:20:47;2.10;;;0.93;;
37411;SDS011;23278;52.110;6.050;2023-04-26T11:23:13;4.97;;;0.90;;
37411;SDS011;23278;52.110;6.050;2023-04-26T11:25:39;3.63;;;0.73;;
37411;SDS011;23278;52.110;6.050;2023-04-26T11:28:06;2.08;;;0.60;;
37411;SDS011;23278;52.110;6.050;2023-04-26T11:30:32;2.80;;;0.85;;
37411;SDS011;23278;52.110;6.050;2023-04-26T11:32:58;6.43;;;1.70;;
37411;SDS011;23278;52.110;6.050;2023-04-26T11:35:24;1.58;;;0.90;;
37411;SDS011;23278;52.110;6.050;2023-04-26T11:37:52;5.65;;;0.82;;
37411;SDS011;23278;52.110;6.050;2023-04-26T11:40:18;1.75;;;1.02;;
37411;SDS011;23278;52.110;6.050;2023-04-26T11:42:43;2.80;;;0.88;;
37411;SDS011;23278;52.110;6.050;2023-04-26T11:45:10;4.43;;;1.10;;
37411;SDS011;23278;52.110;6.050;2023-04-26T11:47:36;1.63;;;0.80;;
37411;SDS011;23278;52.110;6.050;2023-04-26T11:50:03;2.60;;;1.08;;
37411;SDS011;23278;52.110;6.050;2023-04-26T11:52:31;2.83;;;1.17;;
37411;SDS011;23278;52.110;6.050;2023-04-26T11:55:04;2.50;;;0.95;;
37411;SDS011;23278;52.110;6.050;2023-04-26T11:57:30;3.88;;;1.00;;
37411;SDS011;23278;52.110;6.050;2023-04-26T12:00:10;1.50;;;0.70;;
37411;SDS011;23278;52.110;6.050;2023-04-26T12:02:38;2.38;;;1.10;;
37411;SDS011;23278;52.110;6.050;2023-04-26T12:05:08;2.70;;;1.10;;
37411;SDS011;23278;52.110;6.050;2023-04-26T12:07:35;3.83;;;0.90;;
37411;SDS011;23278;52.110;6.050;2023-04-26T12:10:17;2.10;;;1.00;;
37411;SDS011;23278;52.110;6.050;2023-04-26T12:12:51;2.08;;;0.90;;
37411;SDS011;23278;52.110;6.050;2023-04-26T12:15:24;3.78;;;1.10;;
37411;SDS011;23278;52.110;6.050;2023-04-26T12:17:55;4.28;;;1.10;;
37411;SDS011;23278;52.110;6.050;2023-04-26T12:20:32;1.77;;;0.82;;
37411;SDS011;23278;52.110;6.050;2023-04-26T12:23:02;5.50;;;1.40;;
37411;SDS011;23278;52.110;6.050;2023-04-26T12:25:39;2.05;;;0.80;;
37411;SDS011;23278;52.110;6.050;2023-04-26T12:28:17;3.45;;;1.15;;
37411;SDS011;23278;52.110;6.050;2023-04-26T12:30:43;3.05;;;0.77;;
37411;SDS011;23278;52.110;6.050;2023-04-26T12:33:09;5.25;;;0.80;;
37411;SDS011;23278;52.110;6.050;2023-04-26T12:35:35;2.00;;;0.82;;
37411;SDS011;23278;52.110;6.050;2023-04-26T12:38:01;3.08;;;0.80;;
37411;SDS011;23278;52.110;6.050;2023-04-26T12:40:27;2.47;;;0.95;;
37411;SDS011;23278;52.110;6.050;2023-04-26T12:42:53;2.35;;;0.82;;
37411;SDS011;23278;52.110;6.050;2023-04-26T12:45:20;2.58;;;1.10;;
37411;SDS011;23278;52.110;6.050;2023-04-26T12:47:48;2.55;;;0.90;;
37411;SDS011;23278;52.110;6.050;2023-04-26T12:50:14;3.25;;;1.20;;
37411;SDS011;23278;52.110;6.050;2023-04-26T12:52:41;1.85;;;1.00;;
37411;SDS011;23278;52.110;6.050;2023-04-26T12:55:09;3.15;;;1.30;;
37411;SDS011;23278;52.110;6.050;2023-04-26T12:57:36;4.10;;;1.17;;
37411;SDS011;23278;52.110;6.050;2023-04-26T13:00:04;2.58;;;0.93;;
37411;SDS011;23278;52.110;6.050;2023-04-26T13:02:31;1.67;;;0.80;;
37411;SDS011;23278;52.110;6.050;2023-04-26T13:04:59;4.80;;;0.90;;
37411;SDS011;23278;52.110;6.050;2023-04-26T13:07:31;3.70;;;1.33;;
37411;SDS011;23278;52.110;6.050;2023-04-26T13:10:01;2.15;;;0.90;;
37411;SDS011;23278;52.110;6.050;2023-04-26T13:12:27;1.70;;;0.75;;
37411;SDS011;23278;52.110;6.050;2023-04-26T13:14:54;4.10;;;0.98;;
37411;SDS011;23278;52.110;6.050;2023-04-26T13:17:21;4.43;;;1.15;;
37411;SDS011;23278;52.110;6.050;2023-04-26T13:19:48;2.63;;;0.73;;
37411;SDS011;23278;52.110;6.050;2023-04-26T13:22:14;1.83;;;0.80;;
37411;SDS011;23278;52.110;6.050;2023-04-26T13:24:41;2.72;;;0.80;;
37411;SDS011;23278;52.110;6.050;2023-04-26T13:27:07;2.78;;;1.10;;
37411;SDS011;23278;52.110;6.050;2023-04-26T13:29:32;3.85;;;1.33;;
37411;SDS011;23278;52.110;6.050;2023-04-26T13:31:59;6.38;;;0.90;;
37411;SDS011;23278;52.110;6.050;2023-04-26T13:34:25;2.30;;;0.98;;
37411;SDS011;23278;52.110;6.050;2023-04-26T13:36:52;2.08;;;0.70;;
37411;SDS011;23278;52.110;6.050;2023-04-26T13:39:25;3.25;;;0.82;;
37411;SDS011;23278;52.110;6.050;2023-04-26T13:41:55;6.97;;;1.17;;
37411;SDS011;23278;52.110;6.050;2023-04-26T13:44:23;3.13;;;0.82;;
37411;SDS011;23278;52.110;6.050;2023-04-26T13:46:50;3.08;;;1.00;;
37411;SDS011;23278;52.110;6.050;2023-04-26T13:49:17;4.28;;;1.02;;
37411;SDS011;23278;52.110;6.050;2023-04-26T13:51:45;2.45;;;0.80;;
37411;SDS011;23278;52.110;6.050;2023-04-26T13:54:11;1.98;;;0.80;;
37411;SDS011;23278;52.110;6.050;2023-04-26T13:56:37;2.25;;;0.85;;
37411;SDS011;23278;52.110;6.050;2023-04-26T13:59:03;2.42;;;1.40;;
37411;SDS011;23278;52.110;6.050;2023-04-26T14:01:32;3.22;;;1.40;;
37411;SDS011;23278;52.110;6.050;2023-04-26T14:03:58;4.68;;;0.88;;
37411;SDS011;23278;52.110;6.050;2023-04-26T14:06:24;1.80;;;0.80;;
37411;SDS011;23278;52.110;6.050;2023-04-26T14:08:51;4.47;;;0.90;;
37411;SDS011;23278;52.110;6.050;2023-04-26T14:11:17;1.65;;;0.80;;
37411;SDS011;23278;52.110;6.050;2023-04-26T14:13:43;3.20;;;0.60;;
37411;SDS011;23278;52.110;6.050;2023-04-26T14:16:08;2.60;;;0.80;;
37411;SDS011;23278;52.110;6.050;2023-04-26T14:18:35;1.50;;;1.35;;
37411;SDS011;23278;52.110;6.050;2023-04-26T14:21:01;1.90;;;0.70;;
37411;SDS011;23278;52.110;6.050;2023-04-26T14:23:28;4.35;;;0.95;;
37411;SDS011;23278;52.110;6.050;2023-04-26T14:25:55;2.15;;;0.80;;
37411;SDS011;23278;52.110;6.050;2023-04-26T14:28:20;2.22;;;0.60;;
37411;SDS011;23278;52.110;6.050;2023-04-26T14:30:46;1.80;;;0.68;;
37411;SDS011;23278;52.110;6.050;2023-04-26T14:33:12;1.35;;;0.55;;
37411;SDS011;23278;52.110;6.050;2023-04-26T14:35:38;1.90;;;0.65;;
37411;SDS011;23278;52.110;6.050;2023-04-26T14:38:05;2.28;;;0.80;;
37411;SDS011;23278;52.110;6.050;2023-04-26T14:40:31;2.50;;;0.90;;
37411;SDS011;23278;52.110;6.050;2023-04-26T14:42:57;2.35;;;0.90;;
37411;SDS011;23278;52.110;6.050;2023-04-26T14:45:23;3.75;;;0.75;;
37411;SDS011;23278;52.110;6.050;2023-04-26T14:47:49;2.63;;;0.85;;
37411;SDS011;23278;52.110;6.050;2023-04-26T14:50:15;0.90;;;0.60;;
37411;SDS011;23278;52.110;6.050;2023-04-26T14:52:41;1.20;;;0.55;;
37411;SDS011;23278;52.110;6.050;2023-04-26T14:55:07;1.30;;;0.73;;
37411;SDS011;23278;52.110;6.050;2023-04-26T14:57:33;2.60;;;0.70;;
37411;SDS011;23278;52.110;6.050;2023-04-26T14:59:59;2.30;;;1.25;;
37411;SDS011;23278;52.110;6.050;2023-04-26T15:02:32;3.40;;;0.80;;
37411;SDS011;23278;52.110;6.050;2023-04-26T15:04:58;3.38;;;1.35;;
37411;SDS011;23278;52.110;6.050;2023-04-26T15:07:26;2.67;;;0.90;;
37411;SDS011;23278;52.110;6.050;2023-04-26T15:09:52;5.15;;;1.42;;
37411;SDS011;23278;52.110;6.050;2023-04-26T15:12:18;4.30;;;2.25;;
37411;SDS011;23278;52.110;6.050;2023-04-26T15:14:44;4.18;;;1.35;;
37411;SDS011;23278;52.110;6.050;2023-04-26T15:17:10;2.47;;;1.35;;
37411;SDS011;23278;52.110;6.050;2023-04-26T15:19:36;4.28;;;1.10;;
37411;SDS011;23278;52.110;6.050;2023-04-26T15:22:02;4.97;;;1.35;;
37411;SDS011;23278;52.110;6.050;2023-04-26T15:24:28;2.53;;;0.88;;